Jump to content


SOUTHWEST AIRLINES FLIGHT WN3587 FLOWN ON 08-11-2017 BY CAPTAIN TYLER HANUS

Pilot StatsCaptain Tyler Hanus (LDP525) • 244.8 total hours • 53 total flights [View Logbook]
FLIGHT DETAILS
StatusReceived and approved on 2017-08-11 at 17:08:05
Origin AirportMcCarran Intl (KLAS) • Las Vegas, Nevada, United States (2,180 feet MSL)
Filed Flight PlanFLIGHT PLANNER OFFLINE
Destination AirportPhoenix Sky Harbor Intl (KPHX) • Phoenix, Arizona, United States (1,135 feet MSL)
Alternate AirportNone Filed
AirlineSouthwest Airlines
AircraftBoeing 737-800 | Winglets (73H / B737-800)
FS Aircraft UsedBoeing 737-8H4NGX Southwest Airlines (Warrior One) Winglets
Cruising AltitudeFL290
Distance Flown223 nautical miles
Passengers Onboard81 passengers (50.00% full)
DEPARTURE DETAILS
Time Out12:58:52
Taxi Data129,896 lbs total with 11,911 lbs of fuel onboard
Takeoff Data13:17:28 (19 minutes after leaving gate/ramp) • 129,346 lbs total • 5° pitch at 144 knots
Departure METARKLAS 111856Z 07014KT 10SM FEW120 FEW150 38/16 A2992 RMK AO2 SLP097 ACC SW-NW TCU DSNT N T03780156
ARRIVAL DETAILS
Landing Data14:09:36 • 123,523 lbs total • 1° pitch doing 130 knots at a rate of -137.64 feet/minute with 5,167 lbs of fuel onboard
Time In14:20:12 (11 minutes after landing)
Ramp Weight123,152 lbs total
Total Fuel Used6,744 lbs
Total Block Time01:11:57 (1.2 hours) while 29 minutes were spent on the ground
Arrival METARKPHX 112051Z 00000KT 10SM FEW100 FEW190 SCT230 41/15 A2978 RMK AO2 SLP061 T04060150 58023
MISCELLANEOUS DETAILS
LiveDISPATCH Version4.8.3.1
FS Version
FSUIPC Version4.96
OS VersionWindows 7 32-bit
Screen Resolution1360 x 768
Pilot's CommentsNo Comments Reported
FLIGHT MAP